This demonstration page uses our WeatherBlox Daily Observations layout. Learn more.

Left ArrowRight Arrow

41.55636, -103.73856

Hourly Observations for January 17, 2021

Temp ( °F °C ) Dew Point ( °F °C ) Humidity (%) Winds ( mph kmh ) Pressure ( in mb ) Visibility ( mi km ) Precip ( " mm )
12:58 am 00:58 Clear 22 -5.6 13 -10.3 70 70 WNW 10 17 30.2 1023 10 16.0934 0 0
1:58 am 01:58 Clear 21 -6 13 -10.4 71 71 WNW 10 17 30.2 1023 10 16.0934 0 0
2:58 am 02:58 Clear 22 -5.8 13 -10.4 70 70 WNW 9 15 30.19 1022 10 16.0934 0 0
3:58 am 03:58 Cloudy 24 -4.5 14 -10.1 65 65 WNW 9 15 30.19 1022 10 16.0934 0 0
4:58 am 04:58 Cloudy 22 -5.4 14 -10 70 70 WNW 12 19 30.2 1023 10 16.0934 0 0
5:58 am 05:58 Mostly Cloudy 25 -3.8 15 -9.5 65 65 WNW 7 11 30.19 1022 10 16.0934 0 0
6:58 am 06:58 Mostly Cloudy 25 -3.9 16 -8.9 69 69 WNW 8 13 30.2 1023 10 16.0934 0 0
7:58 am 07:58 Mostly Cloudy 27 -2.8 17 -8.5 65 65 W 6 9 30.16 1022 10 16.0934 0 0
8:58 am 08:58 Mostly Sunny 30 -1.2 18 -7.8 61 61 W 3 6 30.16 1022 10 16.0934 0 0
9:58 am 09:58 Mostly Sunny 36 2.2 17 -8.4 46 46 NW 9 15 30.14 1021 10 16.0934 0 0
10:58 am 10:58 Partly Cloudy 39 3.8 16 -9.1 39 39 NW 12 19 30.1 1019 10 16.0934 0 0
11:58 am 11:58 Mostly Sunny 41 5.1 14 -9.8 33 33 WNW 16 26 30.06 1018 10 16.0934 0 0
12:58 pm 12:58 Mostly Cloudy 42 5.8 15 -9.3 33 33 NW 21 33 30.02 1017 10 16.0934 0 0
1:58 pm 13:58 Cloudy 43 5.9 15 -9.5 32 32 WNW 20 31 29.99 1016 10 16.0934 0 0
2:58 pm 14:58 Mostly Sunny 43 6.2 17 -8.3 35 35 WNW 17 28 29.96 1015 10 16.0934 0 0
3:58 pm 15:58 Mostly Cloudy 43 5.9 19 -7.3 38 38 NW 13 20 29.91 1013 10 16.0934 0 0
4:58 pm 16:58 Mostly Cloudy 42 5.8 19 -7 40 40 WNW 14 22 29.91 1013 10 16.0934 0 0
5:58 pm 17:58 Mostly Cloudy 42 5.5 20 -6.8 41 41 WNW 13 20 29.87 1012 10 16.0934 0 0
6:58 pm 18:58 Cloudy 39 4.1 20 -6.8 45 45 WSW 8 13 29.88 1012 10 16.0934 0 0
7:58 pm 19:58 Cloudy 42 5.5 19 -7.2 40 40 WNW 6 9 29.84 1011 10 16.0934 0 0
8:58 pm 20:58 Cloudy 42 5.4 19 -7 41 41 NW 12 19 29.84 1011 10 16.0934 0 0
9:58 pm 21:58 Mostly Cloudy 42 5.5 22 -5.6 45 45 NNW 20 31 29.84 1011 10 16.0934 0 0
11:58 pm 23:58 Cloudy with Light Snow Showers 35 1.7 29 -1.8 78 78 NW 16 26 29.9 1013 10 16.0934 0 0

Powered by AerisWeather